createdAt,value
2023-04-08T00:02:04.213Z,2.83
2023-04-08T00:07:07.453Z,2.65
2023-04-08T00:12:09.982Z,2.55
2023-04-08T00:17:12.290Z,2.00
2023-04-08T00:22:14.561Z,2.20
2023-04-08T00:27:17.044Z,3.10
2023-04-08T00:32:19.313Z,2.10
2023-04-08T00:37:21.408Z,2.08
2023-04-08T00:42:23.576Z,2.28
2023-04-08T00:47:26.089Z,2.33
2023-04-08T00:52:28.282Z,2.92
2023-04-08T00:57:30.451Z,2.20
2023-04-08T01:02:58.761Z,2.08
2023-04-08T01:08:05.464Z,1.92
2023-04-08T01:13:10.363Z,2.20
2023-04-08T01:18:14.488Z,2.00
2023-04-08T01:23:38.032Z,2.20
2023-04-08T01:28:41.469Z,2.10
2023-04-08T01:33:44.953Z,2.80
2023-04-08T01:38:48.854Z,2.20
2023-04-08T01:43:52.595Z,2.78
2023-04-08T01:48:56.430Z,2.50
2023-04-08T01:53:58.750Z,2.03
2023-04-08T01:59:03.504Z,2.75
2023-04-08T02:04:05.701Z,2.45
2023-04-08T02:09:08.519Z,2.50
2023-04-08T02:14:12.456Z,2.40
2023-04-08T02:19:31.595Z,2.65
2023-04-08T02:24:36.183Z,2.78
2023-04-08T02:29:40.911Z,3.70
2023-04-08T02:34:44.561Z,2.63
2023-04-08T02:39:46.823Z,2.80
2023-04-08T02:44:49.258Z,2.55
2023-04-08T02:49:53.404Z,2.40
2023-04-08T02:54:55.504Z,2.58
2023-04-08T02:59:57.632Z,3.58
2023-04-08T03:04:59.854Z,2.70
2023-04-08T03:10:02.936Z,3.83
2023-04-08T03:15:06.332Z,3.05
2023-04-08T03:20:09.079Z,8.02
2023-04-08T03:25:11.872Z,2.75
2023-04-08T03:30:15.573Z,2.45
2023-04-08T03:35:19.255Z,2.40
2023-04-08T03:40:21.487Z,2.30
2023-04-08T03:45:23.738Z,2.70
2023-04-08T03:50:26.160Z,3.17
2023-04-08T03:55:28.254Z,2.80
2023-04-08T04:00:30.859Z,2.40
2023-04-08T04:05:32.903Z,2.88
2023-04-08T04:10:36.134Z,3.10
2023-04-08T04:15:40.130Z,2.30
2023-04-08T04:20:42.988Z,2.85
2023-04-08T04:25:45.262Z,4.38
2023-04-08T04:30:47.442Z,3.20
2023-04-08T04:35:49.704Z,3.17
2023-04-08T04:40:51.817Z,3.58
2023-04-08T04:45:53.825Z,3.20
2023-04-08T04:50:56.795Z,3.03
2023-04-08T04:56:01.367Z,3.45
2023-04-08T05:01:03.533Z,2.78
2023-04-08T05:06:06.119Z,3.38
2023-04-08T05:11:11.575Z,4.25
2023-04-08T05:16:14.232Z,3.50
2023-04-08T05:21:16.429Z,3.88
2023-04-08T05:31:22.609Z,3.33
2023-04-08T05:36:24.743Z,3.70
2023-04-08T05:46:28.900Z,3.45
2023-04-08T05:51:32.081Z,3.70
2023-04-08T05:56:35.019Z,2.90
2023-04-08T06:01:37.394Z,3.50
2023-04-08T06:06:40.645Z,3.40
2023-04-08T06:11:43.079Z,4.05
2023-04-08T06:16:45.276Z,3.80
2023-04-08T06:21:47.538Z,4.13
2023-04-08T06:26:50.082Z,4.60
2023-04-08T06:31:53.036Z,3.33
2023-04-08T06:36:55.403Z,3.53
2023-04-08T06:41:58.259Z,3.75
2023-04-08T06:47:10.936Z,4.15
2023-04-08T06:52:14.785Z,3.72
2023-04-08T06:57:17.279Z,3.20
2023-04-08T07:02:19.839Z,2.90
2023-04-08T07:07:24.265Z,3.67
2023-04-08T07:12:26.329Z,3.20
2023-04-08T07:17:28.518Z,2.72
2023-04-08T07:22:30.608Z,2.58
2023-04-08T07:27:35.032Z,2.97
2023-04-08T07:32:37.283Z,3.00
2023-04-08T07:37:39.387Z,2.85
2023-04-08T07:42:41.704Z,2.35
2023-04-08T07:47:44.685Z,2.53
2023-04-08T07:52:46.816Z,1.95
2023-04-08T07:57:49.021Z,2.50
2023-04-08T08:02:51.410Z,1.90
2023-04-08T08:07:53.532Z,1.70
2023-04-08T08:12:55.773Z,2.70
2023-04-08T08:17:57.950Z,2.33
2023-04-08T08:23:00.118Z,1.52
2023-04-08T08:28:02.382Z,1.98
2023-04-08T08:33:04.609Z,3.53
2023-04-08T08:38:07.699Z,2.65
2023-04-08T08:43:10.192Z,3.20
2023-04-08T08:48:12.387Z,3.40
2023-04-08T08:53:14.481Z,3.00
2023-04-08T08:58:16.612Z,3.15
2023-04-08T09:03:21.843Z,3.10
2023-04-08T09:08:37.777Z,2.97
2023-04-08T09:13:40.440Z,8.95
2023-04-08T09:18:44.762Z,3.58
2023-04-08T09:23:48.985Z,3.08
2023-04-08T09:29:14.388Z,2.90
2023-04-08T09:34:27.542Z,5.10
2023-04-08T09:39:31.076Z,2.33
2023-04-08T09:44:34.697Z,1.80
2023-04-08T09:49:55.570Z,3.08
2023-04-08T09:55:06.802Z,2.60
2023-04-08T10:00:13.136Z,3.55
2023-04-08T10:05:18.646Z,2.63
2023-04-08T10:10:21.309Z,2.83
2023-04-08T10:15:27.159Z,3.40
2023-04-08T10:20:38.079Z,2.35
2023-04-08T10:25:41.785Z,2.60
2023-04-08T10:30:48.638Z,2.97
2023-04-08T10:35:55.120Z,2.60
2023-04-08T10:40:57.271Z,2.75
2023-04-08T10:45:59.387Z,3.33
2023-04-08T10:51:06.345Z,2.67
2023-04-08T10:56:15.233Z,3.05
2023-04-08T11:01:17.752Z,2.95
2023-04-08T11:06:19.981Z,2.67
2023-04-08T11:11:22.893Z,4.65
2023-04-08T11:16:28.089Z,2.80
2023-04-08T11:21:31.793Z,2.92
2023-04-08T11:26:34.578Z,3.72
2023-04-08T11:31:37.011Z,3.67
2023-04-08T11:36:43.055Z,3.45
2023-04-08T11:41:45.152Z,3.60
2023-04-08T11:46:57.391Z,3.63
2023-04-08T11:52:00.497Z,3.47
2023-04-08T11:57:03.217Z,3.17
2023-04-08T12:02:06.109Z,3.92
2023-04-08T12:07:08.215Z,3.88
2023-04-08T12:12:10.419Z,4.18
2023-04-08T12:17:12.756Z,4.78
2023-04-08T12:22:14.919Z,4.38
2023-04-08T12:27:17.175Z,4.60
2023-04-08T12:32:19.455Z,4.55
2023-04-08T12:37:21.842Z,4.82
2023-04-08T12:42:23.904Z,4.43
2023-04-08T12:47:26.434Z,4.65
2023-04-08T12:52:28.584Z,5.07
2023-04-08T12:57:32.138Z,4.18
2023-04-08T13:02:34.324Z,5.65
2023-04-08T13:07:36.671Z,16.63
2023-04-08T13:12:40.360Z,3.97
2023-04-08T13:17:42.523Z,3.92
2023-04-08T13:22:44.660Z,3.42
2023-04-08T13:27:46.880Z,3.95
2023-04-08T13:32:49.191Z,4.30
2023-04-08T13:37:51.470Z,4.95
2023-04-08T13:42:53.685Z,4.07
2023-04-08T13:47:56.911Z,4.63
2023-04-08T13:52:59.120Z,4.35
2023-04-08T13:58:02.424Z,3.95
2023-04-08T14:03:05.929Z,3.85
2023-04-08T14:08:09.087Z,4.43
2023-04-08T14:13:11.225Z,8.45
2023-04-08T14:18:13.541Z,4.55
2023-04-08T14:23:17.017Z,4.30
2023-04-08T14:28:19.121Z,4.65
2023-04-08T14:33:21.231Z,4.70
2023-04-08T14:38:23.307Z,4.05
2023-04-08T14:43:25.667Z,4.50
2023-04-08T14:48:30.578Z,5.15
2023-04-08T14:53:33.644Z,3.55
2023-04-08T14:58:36.134Z,5.15
2023-04-08T15:03:38.507Z,4.38
2023-04-08T15:08:40.842Z,3.78
2023-04-08T15:18:44.985Z,3.88
2023-04-08T15:23:47.191Z,6.28
2023-04-08T15:28:49.639Z,5.28
2023-04-08T15:33:52.453Z,4.78
2023-04-08T15:38:54.771Z,11.55
2023-04-08T15:43:57.169Z,4.68
2023-04-08T15:49:00.859Z,5.10
2023-04-08T15:54:03.731Z,4.45
2023-04-08T15:59:05.870Z,7.97
2023-04-08T16:04:08.235Z,5.45
2023-04-08T16:09:11.299Z,5.10
2023-04-08T16:14:13.401Z,5.05
2023-04-08T16:24:20.717Z,4.60
2023-04-08T16:29:23.034Z,5.63
2023-04-08T16:34:25.253Z,5.68
2023-04-08T16:39:27.990Z,8.63
2023-04-08T16:44:30.081Z,6.38
2023-04-08T16:49:32.243Z,5.85
2023-04-08T16:59:36.397Z,4.90
2023-04-08T17:04:38.513Z,6.03
2023-04-08T17:09:40.639Z,6.38
2023-04-08T17:14:42.786Z,12.43
2023-04-08T17:19:44.992Z,7.63
2023-04-08T17:29:56.443Z,9.43
2023-04-08T17:34:58.563Z,7.20
2023-04-08T17:45:02.844Z,8.50
2023-04-08T17:50:06.669Z,7.65
2023-04-08T17:55:09.340Z,7.72
2023-04-08T18:00:11.789Z,9.50
2023-04-08T18:05:14.466Z,9.63
2023-04-08T18:15:19.599Z,8.30
2023-04-08T18:20:22.391Z,11.20
2023-04-08T18:25:27.647Z,9.45
2023-04-08T18:30:30.425Z,8.98
2023-04-08T18:35:33.628Z,8.13
2023-04-08T18:40:35.790Z,8.90
2023-04-08T18:45:38.000Z,8.80
2023-04-08T18:50:40.481Z,8.00
2023-04-08T18:55:44.792Z,10.40
2023-04-08T19:00:46.902Z,9.80
2023-04-08T19:10:51.259Z,11.88
2023-04-08T19:15:53.330Z,11.27
2023-04-08T19:31:01.028Z,11.50
2023-04-08T19:36:03.619Z,11.60
2023-04-08T19:41:05.925Z,12.27
2023-04-08T19:46:08.791Z,11.60
2023-04-08T19:51:17.616Z,11.88
2023-04-08T19:56:20.011Z,12.50
2023-04-08T20:01:22.386Z,11.10
2023-04-08T20:06:24.517Z,10.95
2023-04-08T20:11:26.692Z,11.80
2023-04-08T20:21:30.841Z,12.30
2023-04-08T20:31:35.005Z,9.40
2023-04-08T20:36:38.166Z,9.23
2023-04-08T20:41:40.297Z,9.93
2023-04-08T20:46:42.851Z,7.95
2023-04-08T20:51:47.934Z,8.75
2023-04-08T20:56:50.031Z,10.73
2023-04-08T21:01:53.981Z,9.30
2023-04-08T21:06:56.152Z,8.38
2023-04-08T21:11:58.294Z,7.25
2023-04-08T21:22:02.829Z,8.93
2023-04-08T21:27:04.964Z,8.65
2023-04-08T21:37:09.661Z,7.32
2023-04-08T21:47:13.681Z,8.82
2023-04-08T21:57:17.971Z,8.10
2023-04-08T22:02:20.118Z,10.43
2023-04-08T22:07:22.243Z,8.82
2023-04-08T22:12:24.421Z,9.25
2023-04-08T22:17:27.187Z,9.60
2023-04-08T22:22:29.234Z,8.95
2023-04-08T22:27:32.133Z,8.80
2023-04-08T22:32:34.325Z,9.88
2023-04-08T22:37:36.743Z,9.23
2023-04-08T22:42:39.234Z,9.02
2023-04-08T22:47:41.328Z,9.13
2023-04-08T22:52:43.494Z,9.15
2023-04-08T23:02:47.718Z,9.70
2023-04-08T23:07:49.879Z,9.75
2023-04-08T23:12:52.113Z,9.55
2023-04-08T23:17:54.282Z,9.27
2023-04-08T23:22:56.764Z,9.48
2023-04-08T23:27:58.966Z,9.68
2023-04-08T23:33:01.376Z,9.50
2023-04-08T23:38:03.456Z,9.05
2023-04-08T23:43:05.812Z,10.10
2023-04-08T23:48:09.602Z,8.90
2023-04-08T23:53:12.363Z,10.27
